Time;durP1;ratioP1;P1;durP2;ratioP2;P2;SDS_P1;SDS_P2;PMS_P1;PMS_P2;Temp;Humidity;BMP_temperature;BMP_pressure;BME280_temperature;BME280_humidity;BME280_pressure;Samples;Min_cycle;Max_cycle;Signal;HPM_P1;HPM_P2
2021/12/02 00:00:15;;;;;;;39.65;5.47;;;;;;;;;;4958877;29;20027;-32
2021/12/02 00:02:41;;;;;;;50.47;6.43;;;;;;;;;;4958582;29;20454;-29
2021/12/02 00:05:07;;;;;;;41.15;6.00;;;;;;;;;;4958836;29;20083;-31
2021/12/02 00:07:34;;;;;;;36.42;6.07;;;;;;;;;;4958509;28;20042;-31
2021/12/02 00:10:01;;;;;;;43.55;4.78;;;;;;;;;;4958407;29;20055;-31
2021/12/02 00:12:27;;;;;;;49.97;6.25;;;;;;;;;;4958354;29;20035;-31
2021/12/02 00:14:53;;;;;;;43.53;5.03;;;;;;;;;;4958608;29;20054;-31
2021/12/02 00:17:26;;;;;;;49.70;7.32;;;;;;;;;;4958237;28;20027;-31
2021/12/02 00:22:49;;;;;;;32.75;6.10;;;;;;;;;;4958552;29;20099;-31
2021/12/02 00:25:16;;;;;;;28.67;7.00;;;;;;;;;;4958124;29;20046;-31
2021/12/02 00:27:44;;;;;;;30.70;5.20;;;;;;;;;;4958091;28;20122;-31
2021/12/02 00:30:10;;;;;;;48.47;6.53;;;;;;;;;;4958289;29;20078;-33
2021/12/02 00:32:39;;;;;;;40.70;6.43;;;;;;;;;;4958101;29;20023;-31
2021/12/02 00:35:05;;;;;;;41.92;5.35;;;;;;;;;;4958590;29;20102;-31
2021/12/02 00:37:32;;;;;;;30.92;5.18;;;;;;;;;;4958205;28;20510;-33
2021/12/02 00:39:58;;;;;;;36.60;4.97;;;;;;;;;;4957940;29;20113;-30
2021/12/02 00:42:26;;;;;;;42.90;5.10;;;;;;;;;;4958056;29;20380;-30
2021/12/02 00:44:53;;;;;;;31.85;4.38;;;;;;;;;;4957743;29;20042;-31
2021/12/02 00:47:20;;;;;;;31.48;5.22;;;;;;;;;;4957636;28;20059;-32
2021/12/02 00:49:47;;;;;;;31.00;6.45;;;;;;;;;;4957826;29;20031;-31
2021/12/02 00:52:14;;;;;;;28.38;4.75;;;;;;;;;;4957856;29;20102;-31
2021/12/02 00:54:42;;;;;;;32.70;5.93;;;;;;;;;;4956451;28;20027;-31
2021/12/02 00:57:09;;;;;;;28.45;6.35;;;;;;;;;;4957381;28;20031;-30
2021/12/02 00:59:36;;;;;;;42.00;6.70;;;;;;;;;;4957734;29;20118;-31
2021/12/02 01:02:03;;;;;;;36.78;6.28;;;;;;;;;;4957928;29;20039;-30
2021/12/02 01:04:29;;;;;;;35.35;5.03;;;;;;;;;;4957677;29;20118;-32
2021/12/02 01:06:57;;;;;;;35.08;4.53;;;;;;;;;;4957528;28;20031;-34
2021/12/02 01:09:23;;;;;;;30.33;4.47;;;;;;;;;;4957492;29;20114;-31
2021/12/02 01:11:50;;;;;;;32.60;6.53;;;;;;;;;;4957529;29;20336;-31
2021/12/02 01:14:16;;;;;;;24.20;3.80;;;;;;;;;;4957203;29;20035;-31
2021/12/02 01:16:43;;;;;;;30.75;4.88;;;;;;;;;;4957428;29;20023;-31
2021/12/02 01:19:09;;;;;;;30.20;5.13;;;;;;;;;;4957056;28;20061;-30
2021/12/02 01:21:37;;;;;;;23.30;5.40;;;;;;;;;;4957180;29;20031;-30
2021/12/02 01:24:05;;;;;;;17.90;3.58;;;;;;;;;;4957333;29;20148;-31
2021/12/02 01:26:32;;;;;;;30.35;4.90;;;;;;;;;;4957243;29;20031;-31
2021/12/02 01:28:59;;;;;;;33.45;6.30;;;;;;;;;;4956736;28;20093;-33
2021/12/02 01:31:30;;;;;;;20.23;4.47;;;;;;;;;;4957069;29;20027;-31
2021/12/02 01:33:56;;;;;;;26.23;6.87;;;;;;;;;;4956895;29;20027;-31
2021/12/02 01:36:24;;;;;;;21.00;4.43;;;;;;;;;;4956765;29;20023;-31
2021/12/02 01:38:51;;;;;;;34.42;4.65;;;;;;;;;;4956770;28;20031;-33
2021/12/02 01:41:17;;;;;;;24.80;3.80;;;;;;;;;;4956727;29;20043;-31
2021/12/02 01:43:48;;;;;;;36.72;4.53;;;;;;;;;;4956705;29;20031;-32
2021/12/02 01:46:15;;;;;;;23.95;4.47;;;;;;;;;;4956647;29;20041;-31
2021/12/02 01:48:43;;;;;;;23.92;4.05;;;;;;;;;;4956543;28;20046;-35
2021/12/02 01:51:11;;;;;;;23.15;4.18;;;;;;;;;;4956648;29;20090;-31
2021/12/02 01:53:38;;;;;;;24.77;5.35;;;;;;;;;;4956646;29;20019;-32
2021/12/02 01:56:12;;;;;;;30.20;5.57;;;;;;;;;;4956609;29;20404;-31
2021/12/02 01:58:59;;;;;;;27.13;5.30;;;;;;;;;;4956473;28;20366;-29
2021/12/02 02:01:27;;;;;;;34.53;6.85;;;;;;;;;;4956445;29;20046;-31
2021/12/02 02:03:54;;;;;;;23.02;4.85;;;;;;;;;;4956724;29;20042;-31
2021/12/02 02:06:28;;;;;;;34.42;4.68;;;;;;;;;;4956294;29;20039;-32
2021/12/02 02:08:56;;;;;;;27.85;5.65;;;;;;;;;;4956269;28;20041;-31
2021/12/02 02:11:24;;;;;;;30.10;4.40;;;;;;;;;;4956391;29;20481;-32
2021/12/02 02:13:51;;;;;;;35.92;5.03;;;;;;;;;;4939395;29;20062;-31
2021/12/02 02:16:17;;;;;;;22.95;3.30;;;;;;;;;;4956527;29;20038;-31
2021/12/02 02:18:44;;;;;;;17.65;4.47;;;;;;;;;;4956443;28;20374;-31
2021/12/02 02:21:14;;;;;;;29.75;4.45;;;;;;;;;;4956080;29;20047;-32
2021/12/02 02:23:51;;;;;;;19.77;3.70;;;;;;;;;;4956152;29;20462;-31
2021/12/02 02:26:28;;;;;;;24.30;3.72;;;;;;;;;;4956436;29;20362;-32
2021/12/02 02:28:55;;;;;;;25.23;4.28;;;;;;;;;;4956013;28;20031;-31
2021/12/02 02:31:22;;;;;;;23.10;3.38;;;;;;;;;;4956333;29;20062;-31
2021/12/02 02:33:49;;;;;;;19.80;3.47;;;;;;;;;;4956142;29;20332;-31
2021/12/02 02:36:16;;;;;;;18.15;3.75;;;;;;;;;;4956318;29;20027;-31
2021/12/02 02:38:45;;;;;;;33.53;3.88;;;;;;;;;;4956014;28;20031;-31
2021/12/02 02:41:12;;;;;;;24.88;5.05;;;;;;;;;;4955932;29;20031;-31
2021/12/02 02:43:38;;;;;;;33.08;5.30;;;;;;;;;;4956495;29;20053;-31
2021/12/02 02:46:05;;;;;;;24.42;4.00;;;;;;;;;;4955948;29;20395;-31
2021/12/02 02:48:31;;;;;;;26.13;6.78;;;;;;;;;;4955767;28;20035;-33
2021/12/02 02:50:57;;;;;;;15.20;4.00;;;;;;;;;;4939024;29;20037;-30
2021/12/02 02:53:25;;;;;;;17.00;4.03;;;;;;;;;;4955942;29;20063;-32
2021/12/02 03:01:25;;;;;;;23.52;3.97;;;;;;;;;;4956166;29;20035;-32
2021/12/02 03:06:59;;;;;;;25.92;4.30;;;;;;;;;;4955848;29;20066;-31
2021/12/02 03:09:40;;;;;;;23.77;3.08;;;;;;;;;;4955968;29;20023;-32
2021/12/02 03:12:23;;;;;;;20.50;3.25;;;;;;;;;;4955735;29;20031;-31
2021/12/02 03:16:37;;;;;;;16.35;3.80;;;;;;;;;;4955704;29;20071;-34
2021/12/02 03:17:40;;;;;;;14.27;4.28;;;;;;;;;;4956687;28;20348;-32
2021/12/02 03:20:07;;;;;;;12.70;3.65;;;;;;;;;;4959634;29;20047;-30
2021/12/02 03:22:33;;;;;;;21.73;3.85;;;;;;;;;;4959784;29;20111;-33
2021/12/02 03:25:00;;;;;;;13.75;4.43;;;;;;;;;;4959489;29;20031;-32
2021/12/02 03:27:26;;;;;;;23.98;3.65;;;;;;;;;;4959345;28;20038;-31
2021/12/02 03:29:52;;;;;;;23.35;4.22;;;;;;;;;;4959081;29;20042;-31
2021/12/02 03:32:19;;;;;;;23.83;3.95;;;;;;;;;;4959099;29;20110;-33
2021/12/02 03:34:45;;;;;;;23.95;3.72;;;;;;;;;;4959373;29;20343;-32
2021/12/02 03:37:11;;;;;;;20.80;4.85;;;;;;;;;;4958981;28;20023;-31
2021/12/02 03:39:37;;;;;;;21.52;3.20;;;;;;;;;;4959270;29;20034;-31
2021/12/02 03:42:06;;;;;;;24.20;3.67;;;;;;;;;;4958947;29;20163;-31
2021/12/02 03:44:32;;;;;;;13.20;2.83;;;;;;;;;;4959105;29;20106;-31
2021/12/02 03:46:59;;;;;;;14.20;3.38;;;;;;;;;;4958763;28;20171;-32
2021/12/02 03:49:25;;;;;;;15.70;4.55;;;;;;;;;;4958692;29;20031;-33
2021/12/02 03:51:51;;;;;;;18.33;3.10;;;;;;;;;;4959048;29;20027;-31
2021/12/02 03:54:18;;;;;;;20.67;4.68;;;;;;;;;;4959083;29;20380;-31
2021/12/02 03:56:44;;;;;;;14.25;3.00;;;;;;;;;;4958683;29;20031;-31
2021/12/02 03:59:10;;;;;;;17.02;3.03;;;;;;;;;;4958501;28;20035;-33
2021/12/02 04:01:37;;;;;;;20.05;4.78;;;;;;;;;;4958616;29;20114;-32
2021/12/02 04:04:03;;;;;;;15.50;3.08;;;;;;;;;;4958533;29;20110;-32
2021/12/02 04:06:29;;;;;;;20.17;4.28;;;;;;;;;;4958787;29;20031;-31
2021/12/02 04:09:01;;;;;;;21.13;4.18;;;;;;;;;;4958364;28;20031;-31
2021/12/02 04:12:43;;;;;;;14.32;3.28;;;;;;;;;;4958759;29;20464;-33
2021/12/02 04:14:28;;;;;;;16.83;4.80;;;;;;;;;;4945066;29;20106;-31
2021/12/02 04:17:05;;;;;;;13.48;4.38;;;;;;;;;;4958284;28;20029;-30
2021/12/02 04:19:32;;;;;;;24.45;5.78;;;;;;;;;;4958303;29;20051;-31
2021/12/02 04:21:58;;;;;;;16.95;3.10;;;;;;;;;;4941326;29;20035;-32
2021/12/02 04:24:24;;;;;;;9.50;3.08;;;;;;;;;;4958746;29;20093;-30
2021/12/02 04:26:51;;;;;;;12.50;3.28;;;;;;;;;;4958067;28;20489;-32
2021/12/02 04:29:17;;;;;;;15.27;2.72;;;;;;;;;;4957703;28;20039;-34
2021/12/02 04:31:44;;;;;;;16.75;5.38;;;;;;;;;;4958128;29;20027;-31
2021/12/02 04:34:11;;;;;;;12.27;2.50;;;;;;;;;;4958017;29;20034;-32
2021/12/02 04:36:37;;;;;;;15.90;3.13;;;;;;;;;;4958039;29;20403;-31
2021/12/02 04:39:04;;;;;;;17.98;3.50;;;;;;;;;;4957902;28;20039;-31
2021/12/02 04:41:30;;;;;;;21.90;3.88;;;;;;;;;;4957846;29;20061;-31
2021/12/02 04:43:56;;;;;;;12.85;3.33;;;;;;;;;;4958349;29;20359;-30
2021/12/02 04:46:22;;;;;;;16.17;3.65;;;;;;;;;;4957741;29;20031;-31
2021/12/02 04:48:48;;;;;;;16.63;3.17;;;;;;;;;;4957858;28;20028;-31
2021/12/02 04:51:15;;;;;;;18.00;4.57;;;;;;;;;;4957941;29;20023;-31
2021/12/02 04:53:41;;;;;;;17.95;3.72;;;;;;;;;;4957879;29;20086;-32
2021/12/02 04:56:07;;;;;;;14.90;3.45;;;;;;;;;;4957501;29;20031;-32
2021/12/02 04:58:34;;;;;;;17.60;2.75;;;;;;;;;;4957304;28;20103;-31
2021/12/02 05:01:00;;;;;;;8.88;2.30;;;;;;;;;;4940373;29;20114;-32
2021/12/02 05:03:26;;;;;;;28.88;4.15;;;;;;;;;;4957462;29;20038;-31
2021/12/02 05:05:53;;;;;;;17.20;3.20;;;;;;;;;;4957693;29;20070;-33
2021/12/02 05:08:19;;;;;;;10.95;3.30;;;;;;;;;;4956990;28;20158;-33
2021/12/02 05:10:45;;;;;;;16.08;2.63;;;;;;;;;;4957371;29;20020;-31
2021/12/02 05:13:11;;;;;;;9.30;3.05;;;;;;;;;;4956986;29;20114;-31
2021/12/02 05:15:37;;;;;;;12.52;3.90;;;;;;;;;;4939992;29;20039;-32
2021/12/02 05:18:04;;;;;;;15.20;3.67;;;;;;;;;;4957404;28;20122;-32
2021/12/02 05:20:30;;;;;;;18.85;3.28;;;;;;;;;;4956721;29;20047;-32
2021/12/02 05:22:56;;;;;;;15.05;3.03;;;;;;;;;;4956935;29;20023;-34
2021/12/02 05:25:22;;;;;;;19.95;5.80;;;;;;;;;;4956767;29;20033;-30
2021/12/02 05:27:49;;;;;;;28.80;4.70;;;;;;;;;;4939845;29;20114;-32
2021/12/02 05:30:15;;;;;;;18.25;4.25;;;;;;;;;;4940334;29;20028;-32
2021/12/02 05:32:41;;;;;;;26.70;4.00;;;;;;;;;;4956684;29;20035;-31
2021/12/02 05:35:07;;;;;;;15.00;3.45;;;;;;;;;;4956954;29;20023;-31
2021/12/02 05:37:34;;;;;;;24.83;3.55;;;;;;;;;;4956755;28;20106;-30
2021/12/02 05:40:00;;;;;;;14.90;3.25;;;;;;;;;;4956282;28;20038;-30
2021/12/02 05:42:26;;;;;;;23.52;3.45;;;;;;;;;;4956855;29;20370;-31
2021/12/02 05:44:53;;;;;;;21.60;3.25;;;;;;;;;;4956558;29;20042;-31
2021/12/02 05:47:19;;;;;;;21.75;4.60;;;;;;;;;;4956675;28;20035;-32
2021/12/02 05:49:45;;;;;;;21.35;4.32;;;;;;;;;;4956725;29;20027;-31
2021/12/02 05:52:11;;;;;;;19.95;4.40;;;;;;;;;;4956965;29;20043;-33
2021/12/02 05:54:38;;;;;;;22.75;4.63;;;;;;;;;;4956436;29;20382;-32
2021/12/02 05:57:04;;;;;;;18.63;3.92;;;;;;;;;;4956591;28;20026;-31
2021/12/02 05:59:30;;;;;;;25.02;4.22;;;;;;;;;;4956846;29;20038;-30
2021/12/02 06:04:51;;;;;;;13.30;3.03;;;;;;;;;;4974537;28;20126;-26
2021/12/02 06:07:17;;;;;;;18.48;4.00;;;;;;;;;;4959069;28;20022;-26
2021/12/02 06:09:44;;;;;;;24.90;5.72;;;;;;;;;;4975303;28;20031;-24
2021/12/02 06:12:10;;;;;;;26.00;3.33;;;;;;;;;;4975537;28;20110;-26
2021/12/02 06:14:36;;;;;;;33.00;3.90;;;;;;;;;;4975460;28;20033;-26
2021/12/02 06:17:03;;;;;;;23.55;3.85;;;;;;;;;;4975490;28;20374;-26
2021/12/02 06:19:29;;;;;;;18.42;5.60;;;;;;;;;;4975934;28;20030;-25
2021/12/02 06:21:55;;;;;;;29.88;4.10;;;;;;;;;;4975484;28;20035;-26
2021/12/02 06:24:29;;;;;;;28.95;3.38;;;;;;;;;;4975855;28;20046;-26
2021/12/02 06:26:56;;;;;;;13.60;3.50;;;;;;;;;;4975425;28;20030;-26
2021/12/02 06:29:22;;;;;;;23.80;3.47;;;;;;;;;;4975838;28;20027;-26
2021/12/02 06:31:48;;;;;;;25.85;4.63;;;;;;;;;;4975511;28;20033;-26
2021/12/02 06:34:15;;;;;;;27.20;3.50;;;;;;;;;;4975579;28;20029;-26
2021/12/02 06:36:41;;;;;;;53.03;5.90;;;;;;;;;;4975263;28;20023;-26
2021/12/02 06:39:08;;;;;;;26.08;5.28;;;;;;;;;;4975256;28;20050;-27
2021/12/02 06:41:34;;;;;;;35.40;4.47;;;;;;;;;;4975849;28;20031;-26
2021/12/02 06:44:00;;;;;;;27.20;4.80;;;;;;;;;;4975171;28;20039;-26
2021/12/02 06:46:29;;;;;;;32.75;4.95;;;;;;;;;;4975160;28;20118;-26
2021/12/02 06:48:55;;;;;;;21.60;4.45;;;;;;;;;;4975503;28;20369;-26
2021/12/02 06:51:22;;;;;;;32.67;4.93;;;;;;;;;;4975662;28;20034;-28
2021/12/02 06:53:49;;;;;;;34.55;4.50;;;;;;;;;;4978981;28;20106;-26
2021/12/02 06:56:15;;;;;;;36.25;4.35;;;;;;;;;;4978939;28;20093;-26
2021/12/02 06:58:41;;;;;;;27.17;4.70;;;;;;;;;;4979063;28;20038;-27
2021/12/02 07:01:08;;;;;;;34.30;4.05;;;;;;;;;;4979013;28;20027;-24
2021/12/02 07:03:34;;;;;;;35.95;5.70;;;;;;;;;;4978573;28;20178;-24
2021/12/02 07:06:00;;;;;;;25.92;3.72;;;;;;;;;;4978974;28;20118;-24
2021/12/02 07:08:29;;;;;;;22.52;4.28;;;;;;;;;;4978820;28;20146;-24
2021/12/02 07:10:56;;;;;;;40.92;5.68;;;;;;;;;;4979217;28;20041;-24
2021/12/02 07:13:22;;;;;;;35.00;5.93;;;;;;;;;;4978647;28;20365;-24
2021/12/02 07:15:53;;;;;;;38.72;4.07;;;;;;;;;;4979070;28;20042;-24
2021/12/02 07:18:19;;;;;;;42.80;5.45;;;;;;;;;;4978442;28;20178;-24
2021/12/02 07:20:48;;;;;;;36.45;4.95;;;;;;;;;;4978540;28;20031;-25
2021/12/02 07:23:15;;;;;;;39.70;4.65;;;;;;;;;;4961433;28;20039;-24
2021/12/02 07:25:42;;;;;;;37.03;6.63;;;;;;;;;;4961324;28;20049;-25
2021/12/02 07:28:11;;;;;;;38.90;4.35;;;;;;;;;;4978136;28;20038;-26
2021/12/02 07:30:38;;;;;;;39.17;4.63;;;;;;;;;;4978197;28;20094;-25
2021/12/02 07:33:05;;;;;;;30.27;4.38;;;;;;;;;;4978347;28;20033;-25
2021/12/02 07:35:31;;;;;;;38.75;6.47;;;;;;;;;;4978095;28;20069;-25
2021/12/02 07:37:59;;;;;;;65.95;8.43;;;;;;;;;;4961081;28;20031;-25
2021/12/02 07:40:27;;;;;;;21.65;4.55;;;;;;;;;;4978098;28;20022;-25
2021/12/02 07:42:54;;;;;;;30.38;4.93;;;;;;;;;;4977786;28;20062;-26
2021/12/02 07:45:26;;;;;;;26.45;5.35;;;;;;;;;;4960770;28;20058;-26
2021/12/02 07:47:54;;;;;;;30.65;4.85;;;;;;;;;;4977587;28;20034;-25
2021/12/02 07:50:21;;;;;;;35.10;4.70;;;;;;;;;;4960508;28;20027;-27
2021/12/02 07:52:51;;;;;;;26.83;4.18;;;;;;;;;;4977632;28;20034;-25
2021/12/02 07:55:18;;;;;;;33.70;4.93;;;;;;;;;;4978036;28;20381;-25
2021/12/02 07:57:45;;;;;;;50.78;5.50;;;;;;;;;;4978009;28;20018;-25
2021/12/02 08:00:14;;;;;;;22.35;5.13;;;;;;;;;;4960674;28;20361;-25
2021/12/02 08:02:44;;;;;;;26.55;4.00;;;;;;;;;;4977108;28;20046;-25
2021/12/02 08:05:11;;;;;;;32.15;5.25;;;;;;;;;;4960392;28;20039;-25
2021/12/02 08:07:39;;;;;;;30.73;5.70;;;;;;;;;;4977536;28;20031;-25
2021/12/02 08:10:07;;;;;;;30.55;4.45;;;;;;;;;;4977818;28;20070;-26
2021/12/02 08:12:34;;;;;;;26.10;3.50;;;;;;;;;;4977640;28;20457;-26
2021/12/02 08:15:02;;;;;;;32.05;5.22;;;;;;;;;;4960605;28;20378;-24
2021/12/02 08:17:28;;;;;;;31.30;4.22;;;;;;;;;;4977697;28;20027;-25
2021/12/02 08:19:55;;;;;;;40.22;4.97;;;;;;;;;;4977742;28;20106;-26
2021/12/02 08:22:21;;;;;;;40.22;4.68;;;;;;;;;;4977661;28;20033;-25
2021/12/02 08:24:48;;;;;;;36.90;4.45;;;;;;;;;;4977731;28;20033;-26
2021/12/02 08:27:15;;;;;;;41.72;6.80;;;;;;;;;;4977340;28;20039;-26
2021/12/02 08:29:42;;;;;;;39.75;4.75;;;;;;;;;;4977120;28;20072;-26
2021/12/02 08:32:09;;;;;;;28.08;6.43;;;;;;;;;;4977016;28;20130;-25
2021/12/02 08:34:35;;;;;;;29.20;4.85;;;;;;;;;;4960577;28;20027;-25
2021/12/02 08:37:01;;;;;;;37.78;5.47;;;;;;;;;;4977500;28;20092;-25
2021/12/02 08:39:29;;;;;;;37.88;6.10;;;;;;;;;;4977135;28;20034;-25
2021/12/02 08:41:56;;;;;;;33.42;4.93;;;;;;;;;;4959794;28;20026;-26
2021/12/02 08:44:25;;;;;;;30.23;4.30;;;;;;;;;;4977110;28;20038;-26
2021/12/02 08:46:51;;;;;;;31.50;4.80;;;;;;;;;;4977013;28;20034;-25
2021/12/02 08:49:18;;;;;;;38.58;4.10;;;;;;;;;;4959851;28;20041;-25
2021/12/02 08:51:45;;;;;;;39.92;8.18;;;;;;;;;;4977020;28;20109;-26
2021/12/02 08:54:12;;;;;;;22.05;4.65;;;;;;;;;;4976789;28;20035;-26
2021/12/02 08:56:39;;;;;;;43.50;7.68;;;;;;;;;;4976841;28;20027;-25
2021/12/02 08:59:05;;;;;;;38.80;6.15;;;;;;;;;;4977470;28;20039;-25
2021/12/02 09:01:33;;;;;;;33.17;6.57;;;;;;;;;;4976770;28;20037;-26
2021/12/02 09:04:01;;;;;;;56.38;5.80;;;;;;;;;;4976500;28;20055;-25
2021/12/02 09:06:28;;;;;;;37.83;4.63;;;;;;;;;;4976770;28;20054;-25
2021/12/02 09:08:56;;;;;;;42.95;5.93;;;;;;;;;;4976777;28;20525;-28
2021/12/02 09:11:22;;;;;;;37.75;5.82;;;;;;;;;;4959660;28;20031;-26
2021/12/02 09:13:51;;;;;;;40.58;6.25;;;;;;;;;;4976452;28;20097;-26
2021/12/02 09:16:18;;;;;;;52.75;5.07;;;;;;;;;;4975401;28;20077;-26
2021/12/02 09:18:44;;;;;;;40.92;6.03;;;;;;;;;;4976330;28;20103;-25
2021/12/02 09:21:11;;;;;;;40.28;4.93;;;;;;;;;;4976520;28;20077;-26
2021/12/02 09:23:37;;;;;;;26.50;4.57;;;;;;;;;;4976748;28;20027;-26
2021/12/02 09:26:04;;;;;;;47.13;5.70;;;;;;;;;;4976013;28;20027;-26
2021/12/02 09:28:31;;;;;;;51.45;6.72;;;;;;;;;;4976114;28;20045;-26
2021/12/02 09:30:57;;;;;;;42.15;7.03;;;;;;;;;;4976693;28;20088;-25
2021/12/02 09:33:24;;;;;;;32.70;5.20;;;;;;;;;;4959087;28;20485;-25
2021/12/02 09:35:50;;;;;;;33.25;4.50;;;;;;;;;;4976489;28;20023;-25
2021/12/02 09:38:16;;;;;;;49.58;5.90;;;;;;;;;;4959004;28;20358;-26
2021/12/02 09:40:44;;;;;;;44.30;7.53;;;;;;;;;;4976105;28;20462;-25
2021/12/02 09:43:12;;;;;;;41.13;6.30;;;;;;;;;;4975876;28;20027;-25
2021/12/02 09:45:39;;;;;;;41.30;5.22;;;;;;;;;;4976027;28;20365;-26
2021/12/02 09:48:08;;;;;;;39.38;5.40;;;;;;;;;;4943772;28;20030;-26
2021/12/02 09:50:49;;;;;;;42.90;5.00;;;;;;;;;;4976153;28;20031;-25
2021/12/02 09:53:19;;;;;;;42.70;4.70;;;;;;;;;;4958961;28;20033;-26
2021/12/02 09:55:52;;;;;;;51.17;5.77;;;;;;;;;;4975975;28;20470;-25
2021/12/02 09:58:22;;;;;;;39.63;4.75;;;;;;;;;;4976222;28;20761;-25
2021/12/02 10:00:58;;;;;;;43.80;5.43;;;;;;;;;;4976040;28;20054;-25
2021/12/02 10:03:33;;;;;;;35.78;6.38;;;;;;;;;;4958554;28;20444;-26
2021/12/02 10:06:03;;;;;;;49.88;7.47;;;;;;;;;;4976166;28;20110;-26
2021/12/02 10:08:33;;;;;;;34.63;5.05;;;;;;;;;;4976243;28;20019;-25
2021/12/02 10:11:02;;;;;;;35.47;6.35;;;;;;;;;;4975611;28;20061;-25
2021/12/02 10:14:00;;;;;;;50.70;7.32;;;;;;;;;;4975607;28;20102;-25
2021/12/02 10:16:28;;;;;;;54.38;6.88;;;;;;;;;;4974629;28;20038;-26
2021/12/02 10:19:09;;;;;;;50.92;5.68;;;;;;;;;;4975579;28;20069;-25
2021/12/02 10:21:55;;;;;;;35.55;6.97;;;;;;;;;;4975777;28;20098;-26
2021/12/02 10:24:24;;;;;;;35.35;5.43;;;;;;;;;;4975818;28;20109;-26
2021/12/02 10:26:52;;;;;;;40.80;6.15;;;;;;;;;;4958665;28;20034;-25
2021/12/02 10:29:23;;;;;;;40.70;5.00;;;;;;;;;;4975208;28;20476;-25
2021/12/02 10:31:50;;;;;;;;;;;;;;;;;;4958745;28;20422;-25
2021/12/02 10:34:28;;;;;;;33.15;5.55;;;;;;;;;;4975312;28;19914;-25
2021/12/02 10:37:10;;;;;;;37.60;7.07;;;;;;;;;;4975547;28;20081;-25
2021/12/02 10:39:39;;;;;;;48.83;6.22;;;;;;;;;;4974265;28;20046;-25
2021/12/02 10:42:12;;;;;;;34.47;8.13;;;;;;;;;;4975084;28;20050;-25
2021/12/02 10:44:48;;;;;;;39.10;7.68;;;;;;;;;;4975237;28;20038;-25
2021/12/02 10:47:22;;;;;;;33.35;4.63;;;;;;;;;;4975481;28;20034;-25
2021/12/02 10:49:56;;;;;;;45.30;6.28;;;;;;;;;;4975748;28;20526;-25
2021/12/02 10:52:38;;;;;;;46.80;6.43;;;;;;;;;;4958008;28;20457;-25
2021/12/02 10:58:36;;;;;;;25.95;5.32;;;;;;;;;;4975357;28;20105;-25
2021/12/02 11:01:27;;;;;;;31.90;5.30;;;;;;;;;;4975017;28;20035;-25
2021/12/02 11:04:12;;;;;;;22.67;4.60;;;;;;;;;;4956935;28;20402;-25
2021/12/02 11:06:46;;;;;;;39.97;6.25;;;;;;;;;;4975349;28;20031;-25
2021/12/02 11:09:37;;;;;;;33.67;5.88;;;;;;;;;;4974234;28;20039;-25
2021/12/02 11:15:10;;;;;;;33.67;5.97;;;;;;;;;;4975239;28;20030;-25
2021/12/02 11:17:41;;;;;;;42.72;5.90;;;;;;;;;;4975115;28;20114;-25
2021/12/02 11:20:09;;;;;;;43.55;5.90;;;;;;;;;;4975458;28;20358;-25
2021/12/02 11:22:35;;;;;;;46.78;6.50;;;;;;;;;;4974813;28;20042;-25
2021/12/02 11:25:02;;;;;;;35.03;5.20;;;;;;;;;;4957929;28;20114;-25
2021/12/02 11:27:34;;;;;;;40.97;6.05;;;;;;;;;;4974831;28;20520;-25
2021/12/02 11:30:04;;;;;;;44.55;5.25;;;;;;;;;;4975346;28;20110;-25
2021/12/02 11:32:32;;;;;;;42.60;6.10;;;;;;;;;;4975007;28;20069;-26
2021/12/02 11:35:12;;;;;;;50.53;6.28;;;;;;;;;;4974836;28;20465;-25
2021/12/02 11:37:39;;;;;;;42.58;6.60;;;;;;;;;;4975133;28;20067;-25
2021/12/02 11:40:09;;;;;;;33.80;5.00;;;;;;;;;;4977908;28;20314;-25
2021/12/02 11:42:38;;;;;;;39.00;8.35;;;;;;;;;;4978495;28;20437;-25
2021/12/02 11:45:06;;;;;;;35.95;5.28;;;;;;;;;;4978142;28;20031;-25
2021/12/02 11:47:36;;;;;;;51.33;5.93;;;;;;;;;;4960994;28;20425;-25
2021/12/02 11:50:04;;;;;;;37.38;4.22;;;;;;;;;;4977957;28;20037;-25
2021/12/02 11:52:31;;;;;;;41.30;5.50;;;;;;;;;;4978308;28;20406;-25
2021/12/02 11:54:59;;;;;;;36.72;5.95;;;;;;;;;;4961091;28;20060;-25
2021/12/02 11:57:27;;;;;;;41.08;5.80;;;;;;;;;;4960954;28;20054;-25
2021/12/02 11:59:53;;;;;;;54.00;7.05;;;;;;;;;;4977898;28;20035;-25
2021/12/02 12:02:19;;;;;;;57.28;6.03;;;;;;;;;;4960777;28;20039;-25
2021/12/02 12:04:53;;;;;;;53.95;6.53;;;;;;;;;;4978557;28;20047;-25
2021/12/02 12:07:21;;;;;;;40.13;7.18;;;;;;;;;;4978101;28;20035;-25
2021/12/02 12:09:47;;;;;;;44.10;6.10;;;;;;;;;;4978050;28;20066;-25
2021/12/02 12:12:13;;;;;;;34.00;4.78;;;;;;;;;;4977727;28;20027;-25
2021/12/02 12:14:41;;;;;;;40.63;7.32;;;;;;;;;;4978063;28;20426;-25
2021/12/02 12:17:17;;;;;;;47.60;6.45;;;;;;;;;;4978105;28;20101;-25
2021/12/02 12:19:47;;;;;;;41.58;6.88;;;;;;;;;;4978313;28;20050;-25
2021/12/02 12:22:24;;;;;;;45.03;5.77;;;;;;;;;;4977938;28;20043;-25
2021/12/02 12:24:52;;;;;;;40.08;6.63;;;;;;;;;;4978092;28;20329;-25
2021/12/02 12:27:28;;;;;;;35.88;6.32;;;;;;;;;;4977935;28;20030;-25
2021/12/02 12:30:09;;;;;;;31.73;6.95;;;;;;;;;;4977288;28;20042;-25
2021/12/02 12:33:07;;;;;;;38.70;7.78;;;;;;;;;;4977256;28;20035;-25
2021/12/02 12:36:15;;;;;;;58.63;8.90;;;;;;;;;;4977976;28;20087;-25
2021/12/02 12:38:51;;;;;;;42.50;7.07;;;;;;;;;;4975936;28;20173;-25
2021/12/02 12:41:41;;;;;;;36.40;5.03;;;;;;;;;;4975533;28;20047;-25
2021/12/02 12:44:08;;;;;;;45.10;6.35;;;;;;;;;;4977179;28;20026;-25
2021/12/02 12:46:35;;;;;;;39.08;7.20;;;;;;;;;;4977210;28;20113;-25
2021/12/02 12:49:18;;;;;;;47.92;5.63;;;;;;;;;;4959792;28;20045;-25
2021/12/02 12:51:53;;;;;;;45.75;6.80;;;;;;;;;;4976975;28;20059;-25
2021/12/02 12:54:20;;;;;;;50.92;6.05;;;;;;;;;;4976725;28;20031;-25
2021/12/02 12:56:47;;;;;;;39.35;6.60;;;;;;;;;;4977033;28;20054;-25
2021/12/02 12:59:16;;;;;;;52.70;6.53;;;;;;;;;;4976722;28;20023;-25
2021/12/02 13:02:00;;;;;;;46.17;11.48;;;;;;;;;;4976899;28;20410;-25
2021/12/02 13:04:27;;;;;;;50.88;6.55;;;;;;;;;;4976544;28;20497;-25
2021/12/02 13:07:10;;;;;;;58.28;7.45;;;;;;;;;;4976541;28;20042;-25
2021/12/02 13:12:21;;;;;;;49.53;6.75;;;;;;;;;;4976406;28;20118;-25
2021/12/02 13:14:52;;;;;;;43.22;5.55;;;;;;;;;;4976414;28;20030;-25
2021/12/02 13:17:37;;;;;;;44.30;7.00;;;;;;;;;;4976785;28;20130;-26
2021/12/02 13:20:14;;;;;;;43.25;7.50;;;;;;;;;;4976392;28;20109;-25
2021/12/02 13:22:41;;;;;;;44.22;5.80;;;;;;;;;;4976444;28;20034;-25
2021/12/02 13:25:27;;;;;;;40.10;5.82;;;;;;;;;;4976285;28;20037;-25
2021/12/02 13:27:53;;;;;;;42.03;6.53;;;;;;;;;;4976079;28;20458;-25
2021/12/02 13:30:20;;;;;;;32.95;5.50;;;;;;;;;;4975940;28;20035;-25
2021/12/02 13:32:50;;;;;;;55.80;6.43;;;;;;;;;;4976368;28;20048;-25
2021/12/02 13:35:26;;;;;;;53.17;6.03;;;;;;;;;;4976507;28;20023;-25
2021/12/02 13:38:02;;;;;;;50.05;7.53;;;;;;;;;;4975961;28;20042;-26
2021/12/02 13:40:35;;;;;;;51.63;6.75;;;;;;;;;;4959300;28;20540;-25
2021/12/02 13:43:02;;;;;;;46.78;6.18;;;;;;;;;;4975916;28;20027;-25
2021/12/02 13:45:29;;;;;;;37.83;6.03;;;;;;;;;;4976223;28;20050;-25
2021/12/02 13:48:15;;;;;;;41.58;6.32;;;;;;;;;;4976374;28;20045;-25
2021/12/02 13:50:46;;;;;;;38.78;6.97;;;;;;;;;;4975808;28;20059;-25
2021/12/02 13:53:12;;;;;;;64.03;8.00;;;;;;;;;;4976139;28;20161;-25
2021/12/02 13:55:41;;;;;;;56.30;6.13;;;;;;;;;;4958729;28;20027;-25
2021/12/02 14:00:44;;;;;;;48.15;8.27;;;;;;;;;;4975444;28;20041;-25
2021/12/02 14:03:13;;;;;;;41.90;6.88;;;;;;;;;;4975571;28;20422;-25
2021/12/02 14:05:44;;;;;;;43.20;7.05;;;;;;;;;;4975923;28;20114;-25
2021/12/02 14:08:10;;;;;;;;;;;;;;;;;;4958901;28;20109;-26
2021/12/02 14:10:37;;;;;;;54.22;6.53;;;;;;;;;;4975775;28;20328;-26
2021/12/02 14:13:07;;;;;;;52.00;7.15;;;;;;;;;;4975543;28;20520;-25
2021/12/02 14:15:37;;;;;;;48.80;8.27;;;;;;;;;;4975578;28;20057;-25
2021/12/02 14:18:18;;;;;;;46.47;8.40;;;;;;;;;;4975763;28;20353;-26
2021/12/02 14:20:46;;;;;;;46.08;6.72;;;;;;;;;;4975381;28;20030;-25
2021/12/02 14:23:14;;;;;;;57.80;7.32;;;;;;;;;;4975521;28;20054;-25
2021/12/02 14:25:42;;;;;;;50.83;6.78;;;;;;;;;;4975250;28;20493;-25
2021/12/02 14:28:16;;;;;;;41.60;6.72;;;;;;;;;;4958341;28;20039;-25
2021/12/02 14:30:44;;;;;;;46.42;6.15;;;;;;;;;;4975271;28;20454;-25
2021/12/02 14:33:12;;;;;;;37.13;5.50;;;;;;;;;;4975081;28;20077;-25
2021/12/02 14:36:02;;;;;;;56.90;9.10;;;;;;;;;;4975106;28;20030;-25
2021/12/02 14:38:32;;;;;;;62.45;7.03;;;;;;;;;;4946125;28;20031;-25
2021/12/02 14:40:59;;;;;;;59.17;9.37;;;;;;;;;;4958222;28;20034;-26
2021/12/02 14:43:30;;;;;;;60.10;7.47;;;;;;;;;;4975047;28;20102;-25
2021/12/02 14:46:11;;;;;;;52.40;7.80;;;;;;;;;;4958080;28;20466;-25
2021/12/02 14:48:37;;;;;;;44.45;6.65;;;;;;;;;;4958045;28;20358;-26
2021/12/02 14:51:12;;;;;;;61.17;6.70;;;;;;;;;;4975082;28;20027;-25
2021/12/02 14:53:52;;;;;;;37.22;6.88;;;;;;;;;;4975030;28;20063;-26
2021/12/02 14:56:22;;;;;;;47.40;7.30;;;;;;;;;;4975492;28;20094;-25
2021/12/02 14:59:09;;;;;;;47.17;5.93;;;;;;;;;;4975239;28;20027;-26
2021/12/02 15:01:37;;;;;;;37.15;5.65;;;;;;;;;;4975391;28;20030;-25
2021/12/02 15:04:18;;;;;;;54.28;9.02;;;;;;;;;;4974966;28;20133;-25
2021/12/02 15:06:45;;;;;;;59.95;8.60;;;;;;;;;;4975547;28;20101;-25
2021/12/02 15:09:29;;;;;;;50.97;6.05;;;;;;;;;;4975275;28;20066;-25